Time;durP1;ratioP1;P1;durP2;ratioP2;P2;SDS_P1;SDS_P2;PMS_P1;PMS_P2;Temp;Humidity;BMP_temperature;BMP_pressure;BME280_temperature;BME280_humidity;BME280_pressure;Samples;Min_cycle;Max_cycle;Signal;HPM_P1;HPM_P2
2023/01/19 00:02:13;;;;;;;25.83;4.78;;;;;;;14.36;36.94;93777.41;4973389;28;20238;-69
2023/01/19 00:04:38;;;;;;;24.92;4.60;;;;;;;14.32;37.89;93750.56;5002755;28;20232;-69
2023/01/19 00:07:06;;;;;;;24.52;4.88;;;;;;;14.42;37.32;93794.28;4970724;28;20191;-68
2023/01/19 00:09:32;;;;;;;22.48;4.38;;;;;;;14.37;37.97;93743.84;4970899;28;20379;-69
2023/01/19 00:11:58;;;;;;;26.27;5.25;;;;;;;14.36;37.59;93745.69;5003482;28;20231;-69
2023/01/19 00:14:24;;;;;;;20.73;3.72;;;;;;;14.29;37.26;93744.88;4968035;28;20230;-69
2023/01/19 00:16:49;;;;;;;22.27;4.63;;;;;;;14.30;37.56;93736.75;5005589;28;20232;-69
2023/01/19 00:19:15;;;;;;;19.75;4.18;;;;;;;14.25;37.66;93756.91;5004741;28;20223;-68
2023/01/19 00:21:40;;;;;;;25.95;4.78;;;;;;;14.21;37.78;93759.13;4967864;28;20191;-69
2023/01/19 00:24:06;;;;;;;22.60;4.88;;;;;;;14.26;37.32;93758.50;5006205;28;20216;-69
2023/01/19 00:26:31;;;;;;;27.55;4.63;;;;;;;14.29;37.28;93760.75;5003463;28;20316;-68
2023/01/19 00:28:57;;;;;;;23.30;4.60;;;;;;;14.31;37.26;93762.16;4971465;28;20271;-70
2023/01/19 00:31:22;;;;;;;16.70;4.07;;;;;;;14.38;38.02;93748.09;5003330;28;20220;-69
2023/01/19 00:33:48;;;;;;;26.27;4.57;;;;;;;14.33;37.63;93759.31;4973771;28;20235;-70
2023/01/19 00:36:15;;;;;;;19.60;4.90;;;;;;;14.38;37.83;93763.97;4970932;28;20396;-70
2023/01/19 00:38:40;;;;;;;21.13;4.38;;;;;;;14.35;37.13;93794.28;4966673;28;20275;-70
2023/01/19 00:41:06;;;;;;;29.67;4.80;;;;;;;14.42;36.94;93781.88;4981765;28;20224;-70
2023/01/19 00:43:31;;;;;;;24.45;4.70;;;;;;;14.31;37.19;93769.28;4969897;28;20993;-67
2023/01/19 00:45:57;;;;;;;25.35;4.68;;;;;;;14.41;37.10;93750.38;4969294;28;20189;-70
2023/01/19 00:48:22;;;;;;;25.00;5.35;;;;;;;14.39;36.89;93760.34;4972247;28;20204;-70
2023/01/19 00:50:48;;;;;;;23.65;3.95;;;;;;;14.43;36.46;93753.59;5003986;28;20219;-70
2023/01/19 00:53:13;;;;;;;23.00;3.83;;;;;;;14.48;36.74;93753.78;5001414;28;20223;-70
2023/01/19 00:55:39;;;;;;;30.42;5.53;;;;;;;14.50;36.66;93746.47;4969933;28;20231;-70
2023/01/19 00:58:06;;;;;;;28.17;5.60;;;;;;;14.45;36.32;93773.53;5000504;28;20192;-70
2023/01/19 01:00:32;;;;;;;27.17;4.45;;;;;;;14.46;36.53;93755.81;4970107;28;20208;-68
2023/01/19 01:02:57;;;;;;;20.20;4.45;;;;;;;14.37;36.81;93743.84;4969803;28;20224;-69
2023/01/19 01:05:23;;;;;;;22.23;4.22;;;;;;;14.35;37.01;93712.31;4977093;28;20247;-70
2023/01/19 01:07:49;;;;;;;25.40;4.80;;;;;;;14.37;36.93;93725.34;4975103;28;20218;-69
2023/01/19 01:10:19;;;;;;;29.38;5.28;;;;;;;14.39;36.26;93734.69;4990183;28;20374;-70
2023/01/19 01:12:46;;;;;;;23.90;4.43;;;;;;;14.41;36.39;93737.94;5028025;28;20226;-70
2023/01/19 01:15:13;;;;;;;25.52;4.45;;;;;;;14.45;36.58;93728.56;4988631;28;20292;-70
2023/01/19 01:17:45;;;;;;;24.20;4.35;;;;;;;14.47;35.85;93723.09;4993225;28;20235;-70
2023/01/19 01:20:16;;;;;;;18.65;3.63;;;;;;;14.53;35.75;93711.69;4986732;28;20211;-71
2023/01/19 01:22:46;;;;;;;28.92;5.28;;;;;;;14.58;36.04;93737.53;5004688;28;20303;-70
2023/01/19 01:25:14;;;;;;;23.60;5.00;;;;;;;14.43;36.03;93735.88;4989624;28;20224;-70
2023/01/19 01:27:41;;;;;;;23.95;4.30;;;;;;;14.49;35.99;93732.44;4988890;28;20187;-70
2023/01/19 01:30:08;;;;;;;18.35;3.85;;;;;;;14.59;35.41;93717.97;4961225;28;20224;-70
2023/01/19 01:32:33;;;;;;;18.30;4.43;;;;;;;14.50;35.78;93757.06;4979569;28;20229;-70
2023/01/19 01:34:58;;;;;;;17.90;4.22;;;;;;;14.45;36.10;93733.06;4984950;28;20228;-70
2023/01/19 01:37:24;;;;;;;18.27;4.13;;;;;;;14.43;35.73;93741.19;4989108;28;20215;-70
2023/01/19 01:39:49;;;;;;;21.48;3.90;;;;;;;14.54;35.62;93730.03;4988786;28;20184;-69
2023/01/19 01:42:17;;;;;;;27.85;4.78;;;;;;;14.47;36.10;93752.97;5015823;28;20179;-70
2023/01/19 01:44:54;;;;;;;14.60;4.15;;;;;;;14.54;35.61;93740.59;4987212;28;20344;-67
2023/01/19 01:47:34;;;;;;;22.58;4.65;;;;;;;14.60;35.08;93805.09;5016748;28;20223;-70
2023/01/19 01:50:19;;;;;;;24.83;3.92;;;;;;;14.57;35.30;93771.13;5006186;28;20242;-70
2023/01/19 01:52:56;;;;;;;20.65;3.95;;;;;;;14.57;35.28;93776.41;4980799;28;20256;-70
2023/01/19 01:55:23;;;;;;;20.80;3.83;;;;;;;14.56;35.23;93772.13;4977850;28;20252;-69
2023/01/19 01:57:53;;;;;;;25.58;4.50;;;;;;;14.53;35.05;93754.81;4968892;28;20262;-69
2023/01/19 02:00:19;;;;;;;27.35;4.43;;;;;;;14.52;35.12;93761.16;4970281;28;20189;-71
2023/01/19 02:02:50;;;;;;;17.75;2.95;;;;;;;14.66;34.84;93774.34;4970421;28;20235;-70
2023/01/19 02:05:23;;;;;;;17.70;2.92;;;;;;;14.58;34.93;93782.50;4980868;28;20220;-71
2023/01/19 02:13:25;;;;;;;18.80;4.17;;;;;;;14.56;34.99;93774.75;4988648;28;20362;-70
2023/01/19 02:15:53;;;;;;;15.23;3.73;;;;;;;14.51;35.06;93779.81;5017471;28;20334;-69
2023/01/19 02:18:21;;;;;;;21.38;3.47;;;;;;;14.49;35.12;93756.25;4987024;28;20273;-70
2023/01/19 02:21:11;;;;;;;13.40;4.27;;;;;;;14.49;35.24;93756.25;4974641;28;20223;-69
2023/01/19 02:23:39;;;;;;;22.20;3.30;;;;;;;14.49;35.15;93750.94;4968603;28;20240;-70
2023/01/19 02:26:08;;;;;;;16.92;3.28;;;;;;;14.51;35.22;93732.22;5002400;28;20228;-70
2023/01/19 02:28:37;;;;;;;15.27;3.33;;;;;;;14.49;34.87;93745.66;4974505;28;20250;-69
2023/01/19 02:31:05;;;;;;;19.63;3.53;;;;;;;14.50;34.91;93736.69;4988524;28;20195;-69
2023/01/19 02:33:30;;;;;;;21.00;2.83;;;;;;;14.50;34.52;93738.53;4991662;28;20217;-69
2023/01/19 02:35:56;;;;;;;15.32;2.83;;;;;;;14.51;34.58;93745.44;4993205;28;20224;-69
2023/01/19 02:38:26;;;;;;;19.20;3.40;;;;;;;14.60;34.48;93741.59;4990862;28;20226;-69
2023/01/19 02:40:54;;;;;;;24.85;3.38;;;;;;;14.54;34.90;93745.06;4990068;28;20223;-69
2023/01/19 02:43:20;;;;;;;20.17;3.25;;;;;;;14.60;34.55;93746.88;5004567;28;20216;-69
2023/01/19 02:45:47;;;;;;;16.33;3.35;;;;;;;14.51;34.58;93732.22;4996897;28;20192;-70
2023/01/19 02:48:13;;;;;;;19.13;3.85;;;;;;;14.64;33.80;93731.41;4987193;28;20302;-69
2023/01/19 02:50:49;;;;;;;14.85;3.22;;;;;;;14.65;34.55;93722.44;4981811;28;20270;-70
2023/01/19 02:53:28;;;;;;;23.48;3.67;;;;;;;14.58;34.42;93770.09;4968065;28;20413;-69
2023/01/19 02:56:01;;;;;;;22.15;3.65;;;;;;;14.56;34.51;93740.38;5000428;28;20699;-70
2023/01/19 02:58:46;;;;;;;15.23;3.40;;;;;;;14.55;34.41;93729.00;4960856;28;20227;-69
2023/01/19 03:01:48;;;;;;;17.83;3.20;;;;;;;14.54;34.44;93739.75;5001480;28;20224;-69
2023/01/19 03:04:39;;;;;;;16.92;3.30;;;;;;;14.54;34.51;93730.03;4965903;28;20235;-69
2023/01/19 03:07:13;;;;;;;18.58;3.55;;;;;;;14.54;34.43;93721.25;4950432;28;20228;-69
2023/01/19 03:10:01;;;;;;;18.52;3.72;;;;;;;14.49;34.39;93727.16;4961713;28;20197;-70
2023/01/19 03:12:44;;;;;;;16.48;3.40;;;;;;;14.47;34.24;93712.50;4989405;28;20285;-70
2023/01/19 03:15:36;;;;;;;18.23;4.18;;;;;;;14.44;34.70;93713.72;4983586;28;20231;-70
2023/01/19 03:18:05;;;;;;;21.40;3.53;;;;;;;14.44;34.26;93712.94;4974649;28;20223;-67
2023/01/19 03:20:31;;;;;;;18.80;3.65;;;;;;;14.42;34.09;93734.28;4984335;28;20227;-70
2023/01/19 03:23:09;;;;;;;20.55;4.25;;;;;;;14.44;34.59;93702.34;4973551;28;20890;-70
2023/01/19 03:25:38;;;;;;;23.98;3.88;;;;;;;14.45;34.53;93738.34;4971886;28;20364;-70
2023/01/19 03:28:03;;;;;;;19.25;3.67;;;;;;;14.41;34.59;93695.63;4976839;28;20226;-69
2023/01/19 03:30:36;;;;;;;21.83;4.97;;;;;;;14.46;34.37;93700.28;4976665;28;20226;-67
2023/01/19 03:33:08;;;;;;;16.35;3.58;;;;;;;14.45;34.50;93690.72;4974156;28;20228;-68
2023/01/19 03:35:38;;;;;;;22.33;3.75;;;;;;;14.43;34.70;93713.94;4972009;28;20220;-69
2023/01/19 03:38:11;;;;;;;15.10;4.47;;;;;;;14.45;34.33;93701.31;4975467;28;20242;-69
2023/01/19 03:40:38;;;;;;;19.02;4.00;;;;;;;14.34;34.72;93713.34;4987798;28;20266;-68
2023/01/19 03:43:04;;;;;;;19.35;4.07;;;;;;;14.41;34.40;93682.41;4994132;28;20199;-69
2023/01/19 03:45:32;;;;;;;22.95;3.92;;;;;;;14.44;33.82;93675.91;4987862;28;20191;-68
2023/01/19 03:47:58;;;;;;;25.35;3.90;;;;;;;14.38;34.30;93682.00;5024875;28;20299;-68
2023/01/19 03:50:28;;;;;;;16.00;3.90;;;;;;;14.45;34.38;93680.16;4991406;28;20227;-68
2023/01/19 03:53:14;;;;;;;29.75;4.47;;;;;;;14.43;34.26;93639.88;4988524;28;20224;-68
2023/01/19 03:55:46;;;;;;;27.33;5.30;;;;;;;14.41;33.89;93695.63;5006154;28;20235;-68
2023/01/19 03:58:12;;;;;;;15.98;4.10;;;;;;;14.46;33.70;93672.03;5000369;28;20194;-68
2023/01/19 04:00:38;;;;;;;21.45;4.50;;;;;;;14.42;33.49;93699.91;4970627;28;20227;-69
2023/01/19 04:03:04;;;;;;;24.35;5.40;;;;;;;14.45;33.62;93688.91;5005908;28;20460;-69
2023/01/19 04:05:30;;;;;;;25.90;5.32;;;;;;;14.42;33.34;93676.09;4971262;28;20225;-69
2023/01/19 04:07:55;;;;;;;30.15;5.30;;;;;;;14.44;33.02;93726.97;4970368;28;20224;-69
2023/01/19 04:10:21;;;;;;;33.80;6.15;;;;;;;14.41;33.24;93769.69;4973510;28;20204;-68
2023/01/19 04:12:47;;;;;;;28.60;5.75;;;;;;;14.40;33.07;93731.00;4980644;28;20189;-69
2023/01/19 04:15:14;;;;;;;27.02;4.75;;;;;;;14.51;32.73;93753.38;5001034;28;20319;-69
2023/01/19 04:17:40;;;;;;;26.80;5.78;;;;;;;14.53;32.86;93694.00;5003299;28;20624;-69
2023/01/19 04:20:07;;;;;;;24.45;5.50;;;;;;;14.61;32.16;93679.72;4976888;28;20227;-69
2023/01/19 04:22:32;;;;;;;26.13;5.57;;;;;;;14.57;32.66;93702.34;4966524;28;20227;-69
2023/01/19 04:24:58;;;;;;;27.95;5.80;;;;;;;14.56;32.45;93668.97;4975170;28;20195;-69
2023/01/19 04:27:24;;;;;;;31.98;6.25;;;;;;;14.54;32.70;93702.72;5001034;28;20222;-69
2023/01/19 04:29:50;;;;;;;29.45;5.90;;;;;;;14.67;32.39;93689.47;5002573;28;20216;-69
2023/01/19 04:32:16;;;;;;;31.95;5.70;;;;;;;14.64;31.90;93702.31;5005937;28;20271;-69
2023/01/19 04:34:42;;;;;;;30.05;6.57;;;;;;;14.62;32.39;93696.41;5005537;28;20318;-69
2023/01/19 04:37:08;;;;;;;33.95;5.95;;;;;;;14.64;31.95;93697.81;5009581;28;20299;-69
2023/01/19 04:39:34;;;;;;;29.98;6.25;;;;;;;14.68;32.39;93677.06;4975046;28;20291;-69
2023/01/19 04:41:59;;;;;;;35.70;6.85;;;;;;;14.68;31.99;93677.88;5003265;28;20235;-68
2023/01/19 04:44:26;;;;;;;32.33;6.20;;;;;;;14.72;32.12;93708.16;4967342;28;20224;-68
2023/01/19 04:46:51;;;;;;;29.23;6.53;;;;;;;14.67;32.10;93705.34;4967929;28;20260;-68
2023/01/19 04:49:17;;;;;;;29.65;5.95;;;;;;;14.67;32.46;93707.19;5001860;28;20199;-68
2023/01/19 04:51:43;;;;;;;34.55;6.25;;;;;;;14.58;32.10;93690.72;4974380;28;20185;-69
2023/01/19 04:54:09;;;;;;;35.00;6.35;;;;;;;14.68;32.31;93717.56;4973530;28;20228;-69
2023/01/19 04:56:34;;;;;;;34.75;7.10;;;;;;;14.56;32.32;93741.19;4972836;28;20618;-69
2023/01/19 04:59:00;;;;;;;37.90;6.90;;;;;;;14.58;32.27;93709.25;4974764;28;20279;-69
2023/01/19 05:01:25;;;;;;;29.15;6.57;;;;;;;14.56;32.21;93711.28;4991524;28;20192;-68
2023/01/19 05:03:51;;;;;;;32.50;6.07;;;;;;;14.61;31.93;93723.88;5024726;28;20223;-69
2023/01/19 05:06:17;;;;;;;31.58;6.30;;;;;;;14.62;32.23;93726.34;4991764;28;20229;-69
2023/01/19 05:08:42;;;;;;;31.75;6.00;;;;;;;14.53;32.34;93741.59;4993423;28;20222;-70
2023/01/19 05:11:07;;;;;;;36.90;7.22;;;;;;;14.51;32.38;93748.91;5021271;28;20227;-69
2023/01/19 05:13:33;;;;;;;31.65;6.65;;;;;;;14.71;31.32;93742.78;4971182;28;20311;-70
2023/01/19 05:15:59;;;;;;;32.00;6.20;;;;;;;14.66;31.83;93745.25;4974714;28;20232;-70
2023/01/19 05:18:25;;;;;;;28.45;5.88;;;;;;;14.73;31.71;93748.69;4991266;28;20235;-69
2023/01/19 05:20:50;;;;;;;20.52;5.22;;;;;;;14.68;31.66;93764.38;4986965;28;20223;-70
2023/01/19 05:23:15;;;;;;;30.40;6.03;;;;;;;14.73;31.43;93760.09;4989866;28;20318;-68
2023/01/19 05:25:42;;;;;;;31.35;7.40;;;;;;;14.71;31.40;93758.66;4991898;28;20253;-69
2023/01/19 05:28:07;;;;;;;38.85;6.97;;;;;;;14.73;31.51;93769.88;4991584;28;20215;-68
2023/01/19 05:30:33;;;;;;;28.50;5.43;;;;;;;14.72;31.46;93770.88;4992678;28;20220;-68
2023/01/19 05:32:58;;;;;;;28.65;5.90;;;;;;;14.66;31.64;93758.47;4990090;28;20222;-68
2023/01/19 05:35:24;;;;;;;25.90;5.57;;;;;;;14.68;31.23;93785.53;4986897;28;20223;-69
2023/01/19 05:37:49;;;;;;;27.08;6.05;;;;;;;14.72;31.37;93762.94;4995661;28;20282;-68
2023/01/19 05:40:15;;;;;;;31.80;5.80;;;;;;;14.67;31.54;93752.97;4990603;28;20191;-68
2023/01/19 05:42:40;;;;;;;32.97;6.13;;;;;;;14.67;31.43;93752.16;4992388;28;20187;-72
2023/01/19 05:45:06;;;;;;;31.25;6.32;;;;;;;14.76;30.89;93825.00;5002016;28;20330;-68
2023/01/19 05:47:32;;;;;;;27.40;6.25;;;;;;;14.73;31.01;93767.22;4970943;28;20219;-68
2023/01/19 05:49:57;;;;;;;33.42;6.43;;;;;;;14.74;31.11;93764.34;5009035;28;20220;-73
2023/01/19 05:52:23;;;;;;;27.67;5.90;;;;;;;14.77;31.08;93776.34;5020652;28;20206;-68
2023/01/19 05:54:50;;;;;;;29.35;6.28;;;;;;;14.75;31.31;93773.94;5020381;28;20199;-68
2023/01/19 05:57:16;;;;;;;28.00;6.57;;;;;;;14.68;31.21;93790.84;5002330;28;20311;-67
2023/01/19 05:59:41;;;;;;;39.40;6.82;;;;;;;14.66;31.34;93845.78;5003383;28;20303;-68
2023/01/19 06:02:07;;;;;;;31.70;6.63;;;;;;;14.75;31.25;93795.09;4968913;28;20290;-68
2023/01/19 06:04:33;;;;;;;23.40;6.15;;;;;;;14.81;31.32;93833.16;4967515;28;20228;-67
2023/01/19 06:06:58;;;;;;;33.15;7.05;;;;;;;14.83;31.16;93827.63;4986131;28;20201;-68
2023/01/19 06:09:24;;;;;;;32.53;6.43;;;;;;;14.77;30.97;93802.81;4967530;28;20314;-68
2023/01/19 06:11:49;;;;;;;29.60;7.22;;;;;;;14.82;30.88;93799.56;4969571;28;20331;-68
2023/01/19 06:14:15;;;;;;;31.77;6.55;;;;;;;14.85;30.58;93809.72;4967580;28;20271;-69
2023/01/19 06:16:40;;;;;;;27.40;5.80;;;;;;;14.88;30.98;93812.75;4964645;28;20243;-69
2023/01/19 06:19:06;;;;;;;30.90;6.72;;;;;;;14.87;30.75;93819.06;5001193;28;20212;-68
2023/01/19 06:21:33;;;;;;;42.50;6.35;;;;;;;14.90;30.89;93816.00;5000634;28;20251;-68
2023/01/19 06:23:58;;;;;;;26.48;6.78;;;;;;;14.97;30.85;93832.69;5014494;28;20227;-70
2023/01/19 06:26:25;;;;;;;29.33;7.72;;;;;;;14.98;30.67;93817.63;5002570;28;20294;-69
2023/01/19 06:28:51;;;;;;;32.25;6.47;;;;;;;15.01;30.69;93801.31;4983487;28;20231;-68
2023/01/19 06:31:16;;;;;;;33.53;6.25;;;;;;;14.95;30.73;93812.75;4985073;28;20234;-68
2023/01/19 06:33:42;;;;;;;36.58;7.82;;;;;;;15.08;30.08;93798.66;4988368;28;20238;-69
2023/01/19 06:36:08;;;;;;;26.63;6.05;;;;;;;15.10;30.31;93841.59;4987528;28;20283;-69
2023/01/19 06:38:34;;;;;;;28.77;6.70;;;;;;;15.06;30.28;93935.72;4982507;28;20231;-68
2023/01/19 06:41:02;;;;;;;31.80;7.03;;;;;;;15.12;30.19;93815.75;4982269;28;20246;-68
2023/01/19 06:43:27;;;;;;;38.55;6.93;;;;;;;15.20;29.59;93847.28;4986642;28;20215;-68
2023/01/19 06:45:53;;;;;;;34.00;7.40;;;;;;;15.25;29.46;93836.88;4997833;28;20293;-67
2023/01/19 06:48:19;;;;;;;30.73;6.68;;;;;;;15.20;29.77;93885.16;4971868;28;20302;-69
2023/01/19 06:50:46;;;;;;;41.47;6.75;;;;;;;15.30;29.22;93870.69;4997111;28;20403;-68
2023/01/19 06:53:12;;;;;;;32.13;6.65;;;;;;;15.37;28.91;93859.06;4984297;28;20219;-68
2023/01/19 06:55:38;;;;;;;32.15;6.72;;;;;;;15.39;29.06;93862.28;4995743;28;20232;-68
2023/01/19 06:58:05;;;;;;;34.40;6.82;;;;;;;15.36;28.77;93873.31;4961697;28;20187;-69
2023/01/19 07:00:30;;;;;;;36.58;7.18;;;;;;;15.48;29.18;93881.44;4964121;28;20641;-69
2023/01/19 07:02:55;;;;;;;36.53;8.65;;;;;;;15.48;28.84;93905.28;4974649;28;20216;-67
2023/01/19 07:05:21;;;;;;;37.40;7.18;;;;;;;15.51;29.20;93896.09;4982990;28;20489;-68
2023/01/19 07:07:53;;;;;;;31.80;6.45;;;;;;;15.53;28.80;93884.28;4995371;28;20224;-68
2023/01/19 07:10:19;;;;;;;25.85;6.82;;;;;;;15.55;28.96;93878.75;4982141;28;20187;-70
2023/01/19 07:12:46;;;;;;;25.50;7.05;;;;;;;15.46;29.00;93872.06;4981631;28;20479;-68
2023/01/19 07:15:12;;;;;;;29.20;7.20;;;;;;;15.55;28.88;93884.03;4985790;28;20297;-67
2023/01/19 07:17:37;;;;;;;28.58;7.40;;;;;;;15.63;29.06;93873.19;4988360;28;20314;-67
2023/01/19 07:20:03;;;;;;;30.55;7.05;;;;;;;15.71;28.19;93896.03;4989843;28;21037;-68
2023/01/19 07:22:29;;;;;;;34.60;6.35;;;;;;;15.72;28.43;93871.19;4992229;28;20187;-69
2023/01/19 07:24:54;;;;;;;37.38;7.15;;;;;;;15.78;28.32;93868.47;4991344;28;20192;-69
2023/01/19 07:27:20;;;;;;;29.20;6.55;;;;;;;15.78;28.06;93900.28;4991049;28;20230;-69
2023/01/19 07:29:45;;;;;;;33.70;6.38;;;;;;;15.84;27.90;93907.38;5006430;28;20657;-69
2023/01/19 07:32:11;;;;;;;35.70;7.38;;;;;;;15.91;27.39;93866.81;4990194;28;20223;-69
2023/01/19 07:34:37;;;;;;;33.22;7.07;;;;;;;15.94;27.46;93896.34;5021131;28;20226;-69
2023/01/19 07:37:03;;;;;;;31.67;7.30;;;;;;;16.04;27.27;93874.69;4990057;28;20196;-69
2023/01/19 07:39:30;;;;;;;34.83;7.05;;;;;;;16.06;27.64;93938.91;4988285;28;20224;-71
2023/01/19 07:41:57;;;;;;;31.55;7.20;;;;;;;15.97;27.55;93887.16;4993670;28;20224;-71
2023/01/19 07:44:22;;;;;;;36.25;6.45;;;;;;;16.07;27.89;93888.31;4997731;28;20586;-70
2023/01/19 07:46:50;;;;;;;32.78;8.00;;;;;;;16.00;28.06;93879.56;4991071;28;20219;-68
2023/01/19 07:49:15;;;;;;;35.35;5.88;;;;;;;15.94;27.39;93896.34;4990727;28;20226;-70
2023/01/19 07:51:41;;;;;;;29.15;7.07;;;;;;;16.07;27.05;93880.34;4990695;28;20184;-70
2023/01/19 07:54:07;;;;;;;36.30;7.10;;;;;;;16.08;26.69;93884.63;4990565;28;20219;-68
2023/01/19 07:56:32;;;;;;;29.35;7.03;;;;;;;16.16;27.31;93880.91;4992980;28;20262;-71
2023/01/19 07:58:58;;;;;;;31.65;6.72;;;;;;;16.04;27.28;93870.19;4989356;28;20301;-71
2023/01/19 08:01:23;;;;;;;35.85;8.07;;;;;;;16.03;27.49;93889.75;4989263;28;20211;-68
2023/01/19 08:03:49;;;;;;;35.70;8.20;;;;;;;16.14;26.81;93911.31;4989183;28;20266;-70
2023/01/19 08:06:20;;;;;;;28.40;6.95;;;;;;;16.20;27.20;93879.47;5021944;28;20219;-70
2023/01/19 08:08:46;;;;;;;38.38;8.18;;;;;;;16.23;27.34;93880.88;5003307;28;20219;-70
2023/01/19 08:11:11;;;;;;;27.25;6.82;;;;;;;16.23;27.30;93867.63;4988676;28;20230;-70
2023/01/19 08:13:36;;;;;;;35.88;7.97;;;;;;;16.23;26.71;93892.28;4987605;28;20319;-71
2023/01/19 08:16:02;;;;;;;29.50;7.72;;;;;;;16.26;26.93;93897.16;4990559;28;20215;-70
2023/01/19 08:18:27;;;;;;;38.38;6.82;;;;;;;16.40;27.16;93895.25;4990132;28;20220;-69
2023/01/19 08:20:53;;;;;;;40.85;8.40;;;;;;;16.46;26.96;93899.69;4989538;28;20674;-71
2023/01/19 08:23:18;;;;;;;36.30;7.13;;;;;;;16.45;26.51;93876.84;4989619;28;20219;-69
2023/01/19 08:25:44;;;;;;;34.58;7.65;;;;;;;16.24;26.34;93867.38;4989844;28;20228;-70
2023/01/19 08:28:13;;;;;;;32.97;7.80;;;;;;;16.33;27.02;93883.84;5019213;28;20181;-71
2023/01/19 08:30:39;;;;;;;36.35;7.85;;;;;;;16.34;26.79;93892.66;4988104;28;20302;-70
2023/01/19 08:33:08;;;;;;;33.47;8.30;;;;;;;16.54;26.58;93888.00;5021877;28;20334;-71
2023/01/19 08:35:36;;;;;;;43.70;8.27;;;;;;;16.64;26.53;93871.59;4987816;28;20267;-68
2023/01/19 08:38:03;;;;;;;41.53;8.80;;;;;;;16.61;26.66;93891.41;5003896;28;20227;-69
2023/01/19 08:40:37;;;;;;;31.90;7.45;;;;;;;16.67;26.31;93893.19;4988978;28;20188;-69
2023/01/19 08:43:06;;;;;;;30.80;7.80;;;;;;;16.72;26.52;93909.28;4978842;28;20172;-69
2023/01/19 08:45:47;;;;;;;35.40;7.82;;;;;;;16.78;26.70;93885.59;5021544;28;20216;-69
2023/01/19 08:48:15;;;;;;;35.13;7.68;;;;;;;16.56;26.63;93896.56;5003139;28;20247;-68
2023/01/19 08:50:41;;;;;;;33.40;7.60;;;;;;;16.50;26.63;93908.84;4984873;28;20224;-69
2023/01/19 08:53:07;;;;;;;31.30;7.50;;;;;;;16.59;26.89;93905.94;4985046;28;20243;-69
2023/01/19 08:55:34;;;;;;;27.90;6.57;;;;;;;16.53;27.13;93905.75;4971320;28;20262;-70
2023/01/19 08:58:00;;;;;;;36.22;6.45;;;;;;;16.60;27.09;93884.50;5022846;28;20188;-68
2023/01/19 09:00:26;;;;;;;31.85;6.35;;;;;;;16.49;27.03;93875.38;5021669;28;20227;-69
2023/01/19 09:02:52;;;;;;;25.17;6.53;;;;;;;16.64;27.13;93879.56;4986787;28;20281;-69
2023/01/19 09:05:18;;;;;;;32.00;6.32;;;;;;;16.68;27.12;93880.72;5012900;28;20228;-69
2023/01/19 09:07:45;;;;;;;30.63;7.32;;;;;;;16.70;26.60;93937.88;4967346;28;20232;-69
2023/01/19 09:10:10;;;;;;;32.90;6.82;;;;;;;16.77;26.86;93937.88;4970506;28;20287;-71
2023/01/19 09:12:36;;;;;;;24.42;5.70;;;;;;;16.93;26.42;93888.72;4969661;28;20223;-70
2023/01/19 09:15:01;;;;;;;26.45;6.40;;;;;;;16.90;26.69;93895.28;4984550;28;20234;-69
2023/01/19 09:17:27;;;;;;;27.73;5.47;;;;;;;16.94;26.66;93869.91;4985930;28;20242;-69
2023/01/19 09:19:52;;;;;;;26.33;5.93;;;;;;;17.04;26.54;93869.41;4969233;28;20220;-68
2023/01/19 09:22:18;;;;;;;23.40;5.47;;;;;;;17.10;26.44;93884.47;4984219;28;20335;-66
2023/01/19 09:24:43;;;;;;;28.05;5.15;;;;;;;17.02;26.33;93842.25;5002994;28;20190;-66
2023/01/19 09:27:08;;;;;;;26.63;5.40;;;;;;;17.10;26.63;93862.41;4984216;28;20229;-65
2023/01/19 09:29:35;;;;;;;27.20;5.18;;;;;;;17.08;25.79;93865.31;5022265;28;20215;-66
2023/01/19 09:32:01;;;;;;;31.73;5.90;;;;;;;17.09;26.71;93852.84;4982518;28;20228;-68
2023/01/19 09:34:26;;;;;;;24.65;5.63;;;;;;;17.07;26.42;93850.38;4967395;28;20202;-69
2023/01/19 09:36:52;;;;;;;23.35;5.15;;;;;;;17.08;26.49;93852.03;4968923;28;20574;-69
2023/01/19 09:39:18;;;;;;;22.60;5.55;;;;;;;17.17;26.54;93848.03;5001476;28;20256;-68
2023/01/19 09:41:48;;;;;;;22.52;5.68;;;;;;;17.33;26.16;93854.59;4996331;28;20227;-68
2023/01/19 09:44:23;;;;;;;25.75;5.18;;;;;;;17.42;26.49;93844.47;5001335;28;20626;-69
2023/01/19 09:46:49;;;;;;;19.08;4.90;;;;;;;17.44;26.30;93884.13;4981114;28;20242;-69
2023/01/19 09:49:19;;;;;;;25.65;4.70;;;;;;;17.31;26.15;93837.25;5001118;28;20195;-67
2023/01/19 09:51:48;;;;;;;24.17;5.10;;;;;;;17.39;26.48;93869.66;4986511;28;20213;-69
2023/01/19 09:54:21;;;;;;;21.75;5.05;;;;;;;17.51;25.91;93859.13;5002174;28;20259;-68
2023/01/19 09:56:48;;;;;;;16.10;4.38;;;;;;;17.57;26.14;93847.56;4986489;28;20324;-69
2023/01/19 09:59:13;;;;;;;21.35;4.38;;;;;;;17.33;26.28;93851.16;4985471;28;20310;-68
2023/01/19 10:01:45;;;;;;;20.42;4.43;;;;;;;17.47;25.91;93847.28;5004867;28;20447;-68
2023/01/19 10:04:27;;;;;;;19.83;4.60;;;;;;;17.60;26.20;93822.41;5019212;28;20274;-67
2023/01/19 10:07:06;;;;;;;19.38;4.75;;;;;;;17.67;25.62;93827.63;4990250;28;20698;-67
2023/01/19 10:09:45;;;;;;;23.60;4.18;;;;;;;17.69;25.41;93821.03;4979454;28;20220;-68
2023/01/19 10:12:22;;;;;;;17.40;4.47;;;;;;;17.67;25.79;93823.13;5003181;28;20306;-67
2023/01/19 10:15:00;;;;;;;20.48;5.15;;;;;;;17.56;25.97;93885.84;5006127;28;20230;-67
2023/01/19 10:17:58;;;;;;;15.73;4.05;;;;;;;17.34;26.42;93831.50;4987558;28;20314;-67
2023/01/19 10:20:32;;;;;;;18.98;4.50;;;;;;;17.48;26.38;93827.66;4923709;29;20236;-67
2023/01/19 10:22:58;;;;;;;18.33;3.67;;;;;;;17.35;26.18;93812.69;4935786;28;20262;-67
2023/01/19 10:25:24;;;;;;;15.07;3.92;;;;;;;17.37;26.29;93799.16;4954318;28;20204;-67
2023/01/19 10:27:50;;;;;;;19.98;4.72;;;;;;;17.37;26.16;93809.78;4965730;28;20286;-67
2023/01/19 10:30:22;;;;;;;20.40;4.22;;;;;;;17.64;25.92;93834.19;4949366;28;20228;-67
2023/01/19 10:32:48;;;;;;;23.27;4.60;;;;;;;17.71;25.75;93831.47;4964586;28;20394;-69
2023/01/19 10:35:23;;;;;;;18.80;4.28;;;;;;;17.58;26.08;93857.16;4950305;28;20255;-69
2023/01/19 10:37:51;;;;;;;16.33;4.25;;;;;;;17.40;26.38;93833.25;4949317;28;20428;-68
2023/01/19 10:40:29;;;;;;;14.73;4.53;;;;;;;17.32;26.17;93839.72;4964644;28;20192;-67
2023/01/19 10:42:56;;;;;;;17.27;4.63;;;;;;;17.40;26.21;93815.50;4964074;28;20201;-69
2023/01/19 10:45:28;;;;;;;15.05;3.95;;;;;;;17.34;25.99;93820.88;4950332;28;20235;-68
2023/01/19 10:47:58;;;;;;;12.48;3.65;;;;;;;17.15;26.13;93820.06;4950512;28;20228;-69
2023/01/19 10:50:28;;;;;;;16.58;4.40;;;;;;;17.08;26.15;93775.00;4964707;28;20224;-69
2023/01/19 10:52:56;;;;;;;16.30;4.40;;;;;;;17.20;26.32;93820.22;4965368;28;20227;-69
2023/01/19 10:55:28;;;;;;;18.27;4.38;;;;;;;17.19;25.73;93798.16;4951762;28;20230;-68
2023/01/19 10:57:54;;;;;;;11.98;3.33;;;;;;;17.36;26.11;93827.59;4967057;28;20236;-69
2023/01/19 11:00:41;;;;;;;16.35;3.17;;;;;;;17.52;26.00;93825.38;4967632;28;20270;-69
2023/01/19 11:03:30;;;;;;;18.33;4.30;;;;;;;17.64;26.29;93799.63;4981331;28;20262;-68
2023/01/19 11:06:20;;;;;;;17.00;3.88;;;;;;;17.94;26.59;93789.03;5002027;28;20277;-68
2023/01/19 11:08:47;;;;;;;26.15;4.60;;;;;;;17.73;26.43;93797.50;5017278;28;20223;-69
2023/01/19 11:11:13;;;;;;;20.00;4.15;;;;;;;17.63;26.66;93793.50;4987450;28;20242;-68
2023/01/19 11:13:40;;;;;;;18.10;4.15;;;;;;;17.62;26.53;93805.19;5003531;28;20232;-68
2023/01/19 11:16:17;;;;;;;23.33;4.10;;;;;;;17.67;26.37;93790.41;4991194;28;20241;-68
2023/01/19 11:18:44;;;;;;;17.77;4.05;;;;;;;17.58;26.39;93793.38;5003113;28;20235;-69
2023/01/19 11:21:16;;;;;;;17.58;3.30;;;;;;;17.76;25.94;93797.84;4985856;28;20230;-69
2023/01/19 11:23:54;;;;;;;18.42;4.03;;;;;;;17.49;25.82;93786.75;4987294;28;20309;-69
2023/01/19 11:26:56;;;;;;;14.18;3.63;;;;;;;17.57;26.25;93772.34;4977093;28;20278;-69
2023/01/19 11:29:25;;;;;;;15.52;3.78;;;;;;;17.59;26.33;93787.03;4988694;28;20254;-69
2023/01/19 11:31:52;;;;;;;15.07;3.88;;;;;;;17.61;26.37;93754.91;4985819;28;20226;-69
2023/01/19 11:34:29;;;;;;;13.73;3.72;;;;;;;17.61;26.09;93794.78;5017295;28;20205;-70
2023/01/19 11:37:20;;;;;;;13.95;3.40;;;;;;;17.47;26.21;93775.53;4991258;28;20230;-69